Deo Volente — PHFJ — position and weather

sailwx.info

Track history (hours):
 
Tides and Currents Weather Stations Pressure Air Temp Water Temp Dewpoint Dewpoint Depression Visibility Wind Speed Wind Dir Waves Ship Positions

Deo Volente

Last reported at 2015-Sep-04 20:33 UTC. Time now 2015-Sep-04 21:06 UTC.
Position N 54°30' E 007°50'.

Length 105 m; draft 4.9 m.

Type: Cargo ship. MMSI: 246518000.

Date/timePositionNaut miles runAvg speedWind from/ knotsBaromVisibWave heightAir tempDewpointWater temp
2015-Sep-04 20:33N 54°30' E 007°50'7 7.4
2015-Sep-04 19:33N 54°38' E 007°47'10 6.9
2015-Sep-04 18:07N 54°47' E 007°44'4 6.6
2015-Sep-04 17:33N 54°51' E 007°43'10 7.2
2015-Sep-04 16:14N 55°01' E 007°41'4 6.3
2015-Sep-04 15:33N 55°05' E 007°40'6 6.0
2015-Sep-04 14:33N 55°11' E 007°39'7 6.7
2015-Sep-04 13:33N 55°17' E 007°36'9 9.5
2015-Sep-04 12:33N 55°26' E 007°29'7 7.1
2015-Sep-04 11:33N 55°33' E 007°26'203 9.2
2015-Sep-03 13:31N 58°42' E 009°41'1313.9
2015-Sep-03 12:33N 58°54' E 009°50'10 9.7
2015-Sep-03 11:33N 59°02' E 010°02'1 0.3
2015-Sep-03 09:31N 59°03' E 010°03'9 9.2
2015-Sep-03 08:33N 59°02' E 010°20'1312.9
2015-Sep-03 07:33N 59°14' E 010°23'2 1.7
2015-Sep-03 06:33N 59°16' E 010°24'0 0.0
2015-Sep-03 05:34N 59°16' E 010°24'0 0.2
2015-Sep-03 04:34N 59°16' E 010°24'8 7.8
2015-Sep-03 03:33N 59°08' E 010°23'7 6.7
2015-Sep-03 02:34N 59°02' E 010°28'5 4.7
2015-Sep-03 01:33N 59°00' E 010°37'1111.5
2015-Sep-03 00:33N 58°49' E 010°39'1211.8
2015-Sep-02 23:33N 58°37' E 010°41'1212.2
2015-Sep-02 22:33N 58°25' E 010°44'1312.6
2015-Sep-02 21:33N 58°13' E 010°47'1211.8
2015-Sep-02 20:33N 58°01' E 010°50'1110.7
2015-Sep-02 19:33N 57°50' E 010°50'10 9.2
2015-Sep-02 18:28N 57°43' E 010°36'0 0.0
2015-Sep-02 12:31N 57°43' E 010°36'0 0.0
2015-Sep-02 11:17N 57°43' E 010°36'1 0.1
2015-Sep-02 03:32N 57°43' E 010°38'4 3.9
2015-Sep-02 02:33N 57°47' E 010°41'8 7.9
2015-Sep-02 01:34N 57°45' E 010°27'168 9.8
2015-Sep-01 08:27N 55°40' E 007°02'1011.1
2015-Sep-01 07:33N 55°31' E 006°54'1212.0
2015-Sep-01 06:33N 55°21' E 006°44'1413.6
2015-Sep-01 05:33N 55°09' E 006°33'6412.8
2015-Sep-01 00:33N 54°11' E 005°43'1110.8
2015-Aug-31 23:32N 54°01' E 005°37'1313.0
2015-Aug-31 22:33N 53°52' E 005°21'1413.9
2015-Aug-31 21:33N 53°43' E 005°03'1414.0
2015-Aug-31 20:33N 53°32' E 004°48'1514.5
2015-Aug-31 19:33N 53°19' E 004°39'2016.1
2015-Aug-31 18:17N 53°01' E 004°22'1216.7
2015-Aug-31 17:33N 52°50' E 004°13'1616.5
2015-Aug-31 16:33N 52°36' E 003°60'1616.3
2015-Aug-31 15:34N 52°20' E 003°52'1616.1
2015-Aug-31 14:33N 52°04' E 003°55'1313.3
2015-Aug-31 13:33N 51°56' E 004°12'10 9.8
2015-Aug-31 12:33N 51°54' E 004°27'0 0.5
2015-Aug-31 11:33N 51°54' E 004°28'0 0.0
2015-Aug-31 10:33N 51°54' E 004°28'0 0.0
2015-Aug-31 09:33N 51°54' E 004°28'0 0.0
2015-Aug-31 08:33N 51°54' E 004°28'0 0.0
2015-Aug-31 07:33N 51°54' E 004°28'0 0.0
2015-Aug-31 06:33N 51°54' E 004°28'0 0.0
2015-Aug-31 05:33N 51°54' E 004°28'0 0.0
2015-Aug-31 04:33N 51°54' E 004°28'0 0.0
2015-Aug-31 03:33N 51°54' E 004°28'0 0.0
2015-Aug-31 02:33N 51°54' E 004°28'0 0.0
2015-Aug-31 01:33N 51°54' E 004°28'0 0.0
2015-Aug-31 00:33N 51°54' E 004°28'0 0.0
2015-Aug-30 23:33N 51°54' E 004°28'0 0.0
2015-Aug-30 22:33N 51°54' E 004°28'0 0.0
2015-Aug-30 21:33N 51°54' E 004°28'0 0.0
2015-Aug-30 20:33N 51°54' E 004°28'0 0.0
2015-Aug-30 19:33N 51°54' E 004°28'0 0.0
2015-Aug-30 18:33N 51°54' E 004°28'0 0.0
2015-Aug-30 17:33N 51°54' E 004°28'0 0.0
2015-Aug-30 16:33N 51°54' E 004°28'0 0.0
2015-Aug-30 15:33N 51°54' E 004°28'0 0.0
2015-Aug-30 14:33N 51°54' E 004°28'0 0.0
2015-Aug-30 13:33N 51°54' E 004°28'0 0.0
2015-Aug-30 12:33N 51°54' E 004°28'0 0.0
2015-Aug-30 11:33N 51°54' E 004°28'0 0.0
2015-Aug-30 10:33N 51°54' E 004°28'0 0.0
2015-Aug-30 09:33N 51°54' E 004°28'0 0.0
2015-Aug-30 08:33N 51°54' E 004°28'0 0.0
2015-Aug-30 07:33N 51°54' E 004°28'0 0.0
2015-Aug-30 06:33N 51°54' E 004°28'0 0.0
2015-Aug-30 05:33N 51°54' E 004°28'0 0.0
2015-Aug-30 04:33N 51°54' E 004°28'0 0.0
2015-Aug-30 03:33N 51°54' E 004°28'0 0.0
2015-Aug-30 02:33N 51°54' E 004°28'0 0.0
2015-Aug-30 01:33N 51°54' E 004°28'0 0.0
2015-Aug-30 00:33N 51°54' E 004°28'0 0.0
2015-Aug-29 23:33N 51°54' E 004°28'0 0.0
2015-Aug-29 22:33N 51°54' E 004°28'0 0.0
2015-Aug-29 21:33N 51°54' E 004°28'0 0.0
2015-Aug-29 20:33N 51°54' E 004°28'0 0.0
2015-Aug-29 19:33N 51°54' E 004°28'0 0.0
2015-Aug-29 18:33N 51°54' E 004°28'0 0.0
2015-Aug-29 17:33N 51°54' E 004°28'0 0.0
2015-Aug-29 16:33N 51°54' E 004°28'0 0.0
2015-Aug-29 15:33N 51°54' E 004°28'0 0.0
2015-Aug-29 14:33N 51°54' E 004°28'0 0.0
2015-Aug-29 13:33N 51°54' E 004°28'0 0.0
2015-Aug-29 12:33N 51°54' E 004°28'0 0.0
2015-Aug-29 11:33N 51°54' E 004°28'0 0.0
2015-Aug-29 10:33N 51°54' E 004°28'0 0.0
2015-Aug-29 09:33N 51°54' E 004°28'0 0.0
2015-Aug-29 08:33N 51°54' E 004°28'0 0.0
2015-Aug-29 07:33N 51°54' E 004°28'0 0.0
2015-Aug-29 06:33N 51°54' E 004°28'0 0.0
2015-Aug-29 05:33N 51°54' E 004°28'0 0.0
2015-Aug-29 04:33N 51°54' E 004°28'0 0.0
2015-Aug-29 03:33N 51°54' E 004°28'0 0.0
2015-Aug-29 02:33N 51°54' E 004°28'0 0.0
2015-Aug-29 01:33N 51°54' E 004°28'0 0.0
2015-Aug-29 00:33N 51°54' E 004°28'0 0.0
2015-Aug-28 23:33N 51°54' E 004°28'0 0.0
2015-Aug-28 22:33N 51°54' E 004°28'0 0.0
2015-Aug-28 21:33N 51°54' E 004°28'0 0.0
2015-Aug-28 20:33N 51°54' E 004°28'0 0.0
2015-Aug-28 19:33N 51°54' E 004°28'0 0.0
2015-Aug-28 18:33N 51°54' E 004°28'0 0.0
2015-Aug-28 17:33N 51°54' E 004°28'0 0.0
2015-Aug-28 16:33N 51°54' E 004°28'0 0.0
2015-Aug-28 15:33N 51°54' E 004°28'0 0.0
2015-Aug-28 14:33N 51°54' E 004°28'0 0.0
2015-Aug-28 13:33N 51°54' E 004°28'0 0.0
2015-Aug-28 12:33N 51°54' E 004°28'0 0.0
2015-Aug-28 11:33N 51°54' E 004°28'0 0.0
2015-Aug-28 10:33N 51°54' E 004°28'0 0.0
2015-Aug-28 09:33N 51°54' E 004°28'0 0.0
2015-Aug-28 08:33N 51°54' E 004°28'0 0.0
2015-Aug-28 07:33N 51°54' E 004°28'0 0.0
2015-Aug-28 06:33N 51°54' E 004°28'0 0.0
2015-Aug-28 05:33N 51°54' E 004°28'0 0.0
2015-Aug-28 04:33N 51°54' E 004°28'0 0.0
2015-Aug-28 03:33N 51°54' E 004°28'0 0.0
2015-Aug-28 02:33N 51°54' E 004°28'0 0.0
2015-Aug-28 01:33N 51°54' E 004°28'0 0.0
2015-Aug-28 00:33N 51°54' E 004°28'0 0.0
2015-Aug-27 23:33N 51°54' E 004°28'0 0.0
2015-Aug-27 22:33N 51°54' E 004°28'0 0.0
2015-Aug-27 21:33N 51°54' E 004°28'0 0.0
2015-Aug-27 20:33N 51°54' E 004°28'0 0.0
2015-Aug-27 19:33N 51°54' E 004°28'0 0.0
2015-Aug-27 18:33N 51°54' E 004°28'0 0.0
2015-Aug-27 17:33N 51°54' E 004°28'0 0.0
2015-Aug-27 16:33N 51°54' E 004°28'0 0.0
2015-Aug-27 15:33N 51°54' E 004°28'0 0.0
2015-Aug-27 14:33N 51°54' E 004°28'0 0.0
2015-Aug-27 13:33N 51°54' E 004°28'0 0.0
2015-Aug-27 12:33N 51°54' E 004°28'0 0.0
2015-Aug-27 11:33N 51°54' E 004°28'0 0.0
2015-Aug-27 10:33N 51°54' E 004°28'0 0.0
2015-Aug-27 09:33N 51°54' E 004°28'0 0.0
2015-Aug-27 08:33N 51°54' E 004°28'0 0.0
2015-Aug-27 07:33N 51°54' E 004°28'0 0.0
2015-Aug-27 06:33N 51°54' E 004°28'0 0.0
2015-Aug-27 05:33N 51°54' E 004°28'0 0.0
2015-Aug-27 04:33N 51°54' E 004°28'0 0.0
2015-Aug-27 03:33N 51°54' E 004°28'0 0.0
2015-Aug-27 02:33N 51°54' E 004°28'0 0.0
2015-Aug-27 01:33N 51°54' E 004°28'0 0.0
2015-Aug-27 00:33N 51°54' E 004°28'0 0.0
2015-Aug-26 23:33N 51°54' E 004°28'0 0.0
2015-Aug-26 22:33N 51°54' E 004°28'0 0.0
2015-Aug-26 21:33N 51°54' E 004°28'0 0.0
2015-Aug-26 20:33N 51°54' E 004°28'0 0.0
2015-Aug-26 19:33N 51°54' E 004°28'0 0.0
2015-Aug-26 18:33N 51°54' E 004°28'0 0.0
2015-Aug-26 17:33N 51°54' E 004°28'0 0.0
2015-Aug-26 16:33N 51°54' E 004°28'0 0.0
2015-Aug-26 15:33N 51°54' E 004°28'0 0.0
2015-Aug-26 14:33N 51°54' E 004°28'0 0.0
2015-Aug-26 13:33N 51°54' E 004°28'0 0.0
2015-Aug-26 12:33N 51°54' E 004°28'0 0.0
2015-Aug-26 11:33N 51°54' E 004°28'0 0.0
2015-Aug-26 10:33N 51°54' E 004°28'0 0.0
2015-Aug-26 09:33N 51°54' E 004°28'0 0.0
2015-Aug-26 08:33N 51°54' E 004°28'0 0.0
2015-Aug-26 07:33N 51°54' E 004°28'0 0.0
2015-Aug-26 06:33N 51°54' E 004°28'0 0.0
2015-Aug-26 05:33N 51°54' E 004°28'0 0.0
2015-Aug-26 04:33N 51°54' E 004°28'0 0.0
2015-Aug-26 03:33N 51°54' E 004°28'0 0.0
2015-Aug-26 02:33N 51°54' E 004°28'0 0.0
2015-Aug-26 01:33N 51°54' E 004°28'0 0.0
2015-Aug-26 00:33N 51°54' E 004°28'0 0.0
2015-Aug-25 23:33N 51°54' E 004°28'0 0.0
2015-Aug-25 22:33N 51°54' E 004°28'0 0.0
2015-Aug-25 21:34N 51°54' E 004°28'  
Track history (hours):
 
Tides and Currents Weather Stations Pressure Air Temp Water Temp Dewpoint Dewpoint Depression Visibility Wind Speed Wind Dir Waves Ship Positions

Deo Volente

Last reported at 2015-Sep-04 20:33 UTC. Time now 2015-Sep-04 21:06 UTC.
Position N 54°30' E 007°50'.

Length 105 m; draft 4.9 m.

Type: Cargo ship. MMSI: 246518000.

Date/timePositionNaut miles runAvg speedWind from/ knotsBaromVisibWave heightAir tempDewpointWater temp
2015-Sep-04 20:33N 54°30' E 007°50'7 7.4
2015-Sep-04 19:33N 54°38' E 007°47'10 6.9
2015-Sep-04 18:07N 54°47' E 007°44'4 6.6
2015-Sep-04 17:33N 54°51' E 007°43'10 7.2
2015-Sep-04 16:14N 55°01' E 007°41'4 6.3
2015-Sep-04 15:33N 55°05' E 007°40'6 6.0
2015-Sep-04 14:33N 55°11' E 007°39'7 6.7
2015-Sep-04 13:33N 55°17' E 007°36'9 9.5
2015-Sep-04 12:33N 55°26' E 007°29'7 7.1
2015-Sep-04 11:33N 55°33' E 007°26'203 9.2
2015-Sep-03 13:31N 58°42' E 009°41'1313.9
2015-Sep-03 12:33N 58°54' E 009°50'10 9.7
2015-Sep-03 11:33N 59°02' E 010°02'1 0.3
2015-Sep-03 09:31N 59°03' E 010°03'9 9.2
2015-Sep-03 08:33N 59°02' E 010°20'1312.9
2015-Sep-03 07:33N 59°14' E 010°23'2 1.7
2015-Sep-03 06:33N 59°16' E 010°24'0 0.0
2015-Sep-03 05:34N 59°16' E 010°24'0 0.2
2015-Sep-03 04:34N 59°16' E 010°24'8 7.8
2015-Sep-03 03:33N 59°08' E 010°23'7 6.7
2015-Sep-03 02:34N 59°02' E 010°28'5 4.7
2015-Sep-03 01:33N 59°00' E 010°37'1111.5
2015-Sep-03 00:33N 58°49' E 010°39'1211.8
2015-Sep-02 23:33N 58°37' E 010°41'1212.2
2015-Sep-02 22:33N 58°25' E 010°44'1312.6
2015-Sep-02 21:33N 58°13' E 010°47'1211.8
2015-Sep-02 20:33N 58°01' E 010°50'1110.7
2015-Sep-02 19:33N 57°50' E 010°50'10 9.2
2015-Sep-02 18:28N 57°43' E 010°36'0 0.0
2015-Sep-02 12:31N 57°43' E 010°36'0 0.0
2015-Sep-02 11:17N 57°43' E 010°36'1 0.1
2015-Sep-02 03:32N 57°43' E 010°38'4 3.9
2015-Sep-02 02:33N 57°47' E 010°41'8 7.9
2015-Sep-02 01:34N 57°45' E 010°27'168 9.8
2015-Sep-01 08:27N 55°40' E 007°02'1011.1
2015-Sep-01 07:33N 55°31' E 006°54'1212.0
2015-Sep-01 06:33N 55°21' E 006°44'1413.6
2015-Sep-01 05:33N 55°09' E 006°33'6412.8
2015-Sep-01 00:33N 54°11' E 005°43'1110.8
2015-Aug-31 23:32N 54°01' E 005°37'1313.0
2015-Aug-31 22:33N 53°52' E 005°21'1413.9
2015-Aug-31 21:33N 53°43' E 005°03'1414.0
2015-Aug-31 20:33N 53°32' E 004°48'1514.5
2015-Aug-31 19:33N 53°19' E 004°39'2016.1
2015-Aug-31 18:17N 53°01' E 004°22'1216.7
2015-Aug-31 17:33N 52°50' E 004°13'1616.5
2015-Aug-31 16:33N 52°36' E 003°60'1616.3
2015-Aug-31 15:34N 52°20' E 003°52'1616.1
2015-Aug-31 14:33N 52°04' E 003°55'1313.3
2015-Aug-31 13:33N 51°56' E 004°12'10 9.8
2015-Aug-31 12:33N 51°54' E 004°27'0 0.5
2015-Aug-31 11:33N 51°54' E 004°28'0 0.0
2015-Aug-31 10:33N 51°54' E 004°28'0 0.0
2015-Aug-31 09:33N 51°54' E 004°28'0 0.0
2015-Aug-31 08:33N 51°54' E 004°28'0 0.0
2015-Aug-31 07:33N 51°54' E 004°28'0 0.0
2015-Aug-31 06:33N 51°54' E 004°28'0 0.0
2015-Aug-31 05:33N 51°54' E 004°28'0 0.0
2015-Aug-31 04:33N 51°54' E 004°28'0 0.0
2015-Aug-31 03:33N 51°54' E 004°28'0 0.0
2015-Aug-31 02:33N 51°54' E 004°28'0 0.0
2015-Aug-31 01:33N 51°54' E 004°28'0 0.0
2015-Aug-31 00:33N 51°54' E 004°28'0 0.0
2015-Aug-30 23:33N 51°54' E 004°28'0 0.0
2015-Aug-30 22:33N 51°54' E 004°28'0 0.0
2015-Aug-30 21:33N 51°54' E 004°28'0 0.0
2015-Aug-30 20:33N 51°54' E 004°28'0 0.0
2015-Aug-30 19:33N 51°54' E 004°28'0 0.0
2015-Aug-30 18:33N 51°54' E 004°28'0 0.0
2015-Aug-30 17:33N 51°54' E 004°28'0 0.0
2015-Aug-30 16:33N 51°54' E 004°28'0 0.0
2015-Aug-30 15:33N 51°54' E 004°28'0 0.0
2015-Aug-30 14:33N 51°54' E 004°28'0 0.0
2015-Aug-30 13:33N 51°54' E 004°28'0 0.0
2015-Aug-30 12:33N 51°54' E 004°28'0 0.0
2015-Aug-30 11:33N 51°54' E 004°28'0 0.0
2015-Aug-30 10:33N 51°54' E 004°28'0 0.0
2015-Aug-30 09:33N 51°54' E 004°28'0 0.0
2015-Aug-30 08:33N 51°54' E 004°28'0 0.0
2015-Aug-30 07:33N 51°54' E 004°28'0 0.0
2015-Aug-30 06:33N 51°54' E 004°28'0 0.0
2015-Aug-30 05:33N 51°54' E 004°28'0 0.0
2015-Aug-30 04:33N 51°54' E 004°28'0 0.0
2015-Aug-30 03:33N 51°54' E 004°28'0 0.0
2015-Aug-30 02:33N 51°54' E 004°28'0 0.0
2015-Aug-30 01:33N 51°54' E 004°28'0 0.0
2015-Aug-30 00:33N 51°54' E 004°28'0 0.0
2015-Aug-29 23:33N 51°54' E 004°28'0 0.0
2015-Aug-29 22:33N 51°54' E 004°28'0 0.0
2015-Aug-29 21:33N 51°54' E 004°28'0 0.0
2015-Aug-29 20:33N 51°54' E 004°28'0 0.0
2015-Aug-29 19:33N 51°54' E 004°28'0 0.0
2015-Aug-29 18:33N 51°54' E 004°28'0 0.0
2015-Aug-29 17:33N 51°54' E 004°28'0 0.0
2015-Aug-29 16:33N 51°54' E 004°28'0 0.0
2015-Aug-29 15:33N 51°54' E 004°28'0 0.0
2015-Aug-29 14:33N 51°54' E 004°28'0 0.0
2015-Aug-29 13:33N 51°54' E 004°28'0 0.0
2015-Aug-29 12:33N 51°54' E 004°28'0 0.0
2015-Aug-29 11:33N 51°54' E 004°28'0 0.0
2015-Aug-29 10:33N 51°54' E 004°28'0 0.0
2015-Aug-29 09:33N 51°54' E 004°28'0 0.0
2015-Aug-29 08:33N 51°54' E 004°28'0 0.0
2015-Aug-29 07:33N 51°54' E 004°28'0 0.0
2015-Aug-29 06:33N 51°54' E 004°28'0 0.0
2015-Aug-29 05:33N 51°54' E 004°28'0 0.0
2015-Aug-29 04:33N 51°54' E 004°28'0 0.0
2015-Aug-29 03:33N 51°54' E 004°28'0 0.0
2015-Aug-29 02:33N 51°54' E 004°28'0 0.0
2015-Aug-29 01:33N 51°54' E 004°28'0 0.0
2015-Aug-29 00:33N 51°54' E 004°28'0 0.0
2015-Aug-28 23:33N 51°54' E 004°28'0 0.0
2015-Aug-28 22:33N 51°54' E 004°28'0 0.0
2015-Aug-28 21:33N 51°54' E 004°28'0 0.0
2015-Aug-28 20:33N 51°54' E 004°28'0 0.0
2015-Aug-28 19:33N 51°54' E 004°28'0 0.0
2015-Aug-28 18:33N 51°54' E 004°28'0 0.0
2015-Aug-28 17:33N 51°54' E 004°28'0 0.0
2015-Aug-28 16:33N 51°54' E 004°28'0 0.0
2015-Aug-28 15:33N 51°54' E 004°28'0 0.0
2015-Aug-28 14:33N 51°54' E 004°28'0 0.0
2015-Aug-28 13:33N 51°54' E 004°28'0 0.0
2015-Aug-28 12:33N 51°54' E 004°28'0 0.0
2015-Aug-28 11:33N 51°54' E 004°28'0 0.0
2015-Aug-28 10:33N 51°54' E 004°28'0 0.0
2015-Aug-28 09:33N 51°54' E 004°28'0 0.0
2015-Aug-28 08:33N 51°54' E 004°28'0 0.0
2015-Aug-28 07:33N 51°54' E 004°28'0 0.0
2015-Aug-28 06:33N 51°54' E 004°28'0 0.0
2015-Aug-28 05:33N 51°54' E 004°28'0 0.0
2015-Aug-28 04:33N 51°54' E 004°28'0 0.0
2015-Aug-28 03:33N 51°54' E 004°28'0 0.0
2015-Aug-28 02:33N 51°54' E 004°28'0 0.0
2015-Aug-28 01:33N 51°54' E 004°28'0 0.0
2015-Aug-28 00:33N 51°54' E 004°28'0 0.0
2015-Aug-27 23:33N 51°54' E 004°28'0 0.0
2015-Aug-27 22:33N 51°54' E 004°28'0 0.0
2015-Aug-27 21:33N 51°54' E 004°28'0 0.0
2015-Aug-27 20:33N 51°54' E 004°28'0 0.0
2015-Aug-27 19:33N 51°54' E 004°28'0 0.0
2015-Aug-27 18:33N 51°54' E 004°28'0 0.0
2015-Aug-27 17:33N 51°54' E 004°28'0 0.0
2015-Aug-27 16:33N 51°54' E 004°28'0 0.0
2015-Aug-27 15:33N 51°54' E 004°28'0 0.0
2015-Aug-27 14:33N 51°54' E 004°28'0 0.0
2015-Aug-27 13:33N 51°54' E 004°28'0 0.0
2015-Aug-27 12:33N 51°54' E 004°28'0 0.0
2015-Aug-27 11:33N 51°54' E 004°28'0 0.0
2015-Aug-27 10:33N 51°54' E 004°28'0 0.0
2015-Aug-27 09:33N 51°54' E 004°28'0 0.0
2015-Aug-27 08:33N 51°54' E 004°28'0 0.0
2015-Aug-27 07:33N 51°54' E 004°28'0 0.0
2015-Aug-27 06:33N 51°54' E 004°28'0 0.0
2015-Aug-27 05:33N 51°54' E 004°28'0 0.0
2015-Aug-27 04:33N 51°54' E 004°28'0 0.0
2015-Aug-27 03:33N 51°54' E 004°28'0 0.0
2015-Aug-27 02:33N 51°54' E 004°28'0 0.0
2015-Aug-27 01:33N 51°54' E 004°28'0 0.0
2015-Aug-27 00:33N 51°54' E 004°28'0 0.0
2015-Aug-26 23:33N 51°54' E 004°28'0 0.0
2015-Aug-26 22:33N 51°54' E 004°28'0 0.0
2015-Aug-26 21:33N 51°54' E 004°28'0 0.0
2015-Aug-26 20:33N 51°54' E 004°28'0 0.0
2015-Aug-26 19:33N 51°54' E 004°28'0 0.0
2015-Aug-26 18:33N 51°54' E 004°28'0 0.0
2015-Aug-26 17:33N 51°54' E 004°28'0 0.0
2015-Aug-26 16:33N 51°54' E 004°28'0 0.0
2015-Aug-26 15:33N 51°54' E 004°28'0 0.0
2015-Aug-26 14:33N 51°54' E 004°28'0 0.0
2015-Aug-26 13:33N 51°54' E 004°28'0 0.0
2015-Aug-26 12:33N 51°54' E 004°28'0 0.0
2015-Aug-26 11:33N 51°54' E 004°28'0 0.0
2015-Aug-26 10:33N 51°54' E 004°28'0 0.0
2015-Aug-26 09:33N 51°54' E 004°28'0 0.0
2015-Aug-26 08:33N 51°54' E 004°28'0 0.0
2015-Aug-26 07:33N 51°54' E 004°28'0 0.0
2015-Aug-26 06:33N 51°54' E 004°28'0 0.0
2015-Aug-26 05:33N 51°54' E 004°28'0 0.0
2015-Aug-26 04:33N 51°54' E 004°28'0 0.0
2015-Aug-26 03:33N 51°54' E 004°28'0 0.0
2015-Aug-26 02:33N 51°54' E 004°28'0 0.0
2015-Aug-26 01:33N 51°54' E 004°28'0 0.0
2015-Aug-26 00:33N 51°54' E 004°28'0 0.0
2015-Aug-25 23:33N 51°54' E 004°28'0 0.0
2015-Aug-25 22:33N 51°54' E 004°28'0 0.0
2015-Aug-25 21:34N 51°54' E 004°28'  

Dump ship's entire track history